^^
Station Historical Data
 
Daily Summary for August 27, 2016 Units:  English    Metric   Both
« Previous Day
Next Day »
Daily Weekly Monthly Yearly Custom
  Current: High: Low: Average:
Temperature: 78.9 °F 80.2 °F 78.9 °F 79.5 °F
Dew Point: 74.0 °F 74.8 °F 73.7 °F 74.2 °F
Humidity: 85% 85% 83% 84%
Wind Speed: 2.0mph 5.8mph 0.0mph 2.6mph
Wind Gust: 2.0mph 5.8mph - -
WindENE - - ENE
Pressure: 29.95 in 29.98 in 29.95 in -
Precipitation: 0.00 in      
Historical Graphs
 
 
Tabular Data for August 27, 2016
Time Temperature Dew Point Pressure Wind Wind Speed Wind Gust Humidity Rainfall Rate (Hourly) solar Conditions
00:00 80.2 °F 74.6 °F 29.98 in ENE 5.8 mph 5.8 mph 83% 0.00 in 0.0 W/m2 CLR
00:05 80.2 °F 74.6 °F 29.98 in East 3.5 mph 3.5 mph 83% 0.00 in 0.0 W/m2 CLR
00:10 80.1 °F 74.8 °F 29.98 in ENE 3.0 mph 3.0 mph 84% 0.00 in 0.0 W/m2 CLR
00:15 80.1 °F 74.8 °F 29.98 in East 3.5 mph 3.5 mph 84% 0.00 in 0.0 W/m2 CLR
00:20 80.0 °F 74.7 °F 29.98 in East 3.5 mph 3.5 mph 84% 0.00 in 0.0 W/m2 CLR
00:25 79.9 °F 74.6 °F 29.98 in East 3.5 mph 3.5 mph 84% 0.00 in 0.0 W/m2 CLR
00:30 79.9 °F 74.3 °F 29.98 in ESE 3.5 mph 3.5 mph 83% 0.00 in 0.0 W/m2 CLR
00:35 79.8 °F 74.2 °F 29.98 in East 3.5 mph 3.5 mph 83% 0.00 in 0.0 W/m2 CLR
00:40 79.9 °F 74.3 °F 29.98 in ENE 4.0 mph 4.0 mph 83% 0.00 in 0.0 W/m2 CLR
00:45 79.8 °F 74.2 °F 29.98 in ENE 3.5 mph 3.5 mph 83% 0.00 in 0.0 W/m2 CLR
00:50 79.8 °F 74.2 °F 29.98 in ENE 3.5 mph 3.6 mph 83% 0.00 in 0.0 W/m2 CLR
00:55 79.8 °F 74.2 °F 29.98 in ENE 3.5 mph 3.5 mph 83% 0.00 in 0.0 W/m2 CLR
01:00 79.8 °F 74.2 °F 29.98 in ENE 3.5 mph 3.5 mph 83% 0.00 in 0.0 W/m2 CLR
01:05 79.7 °F 74.1 °F 29.98 in ESE 2.3 mph 2.3 mph 83% 0.00 in 0.0 W/m2 CLR
01:10 79.7 °F 74.1 °F 29.98 in ESE 2.3 mph 2.3 mph 83% 0.00 in 0.0 W/m2 CLR
01:15 79.6 °F 74.0 °F 29.98 in ESE 1.2 mph 1.2 mph 83% 0.00 in 0.0 W/m2 CLR
01:20 79.5 °F 74.2 °F 29.98 in East 2.3 mph   84% 0.00 in 0.0 W/m2 CLR
01:25 79.4 °F 74.1 °F 29.97 in Calm     84% 0.00 in 0.0 W/m2 CLR
01:30 79.3 °F 74.0 °F 29.97 in ENE 1.2 mph   84% 0.00 in 0.0 W/m2 CLR
01:35 79.2 °F 73.9 °F 29.97 in ENE 2.3 mph 2.3 mph 84% 0.00 in 0.0 W/m2 CLR
01:40 79.2 °F 73.9 °F 29.97 in ENE 2.3 mph 2.3 mph 84% 0.00 in 0.0 W/m2 CLR
01:45 79.1 °F 73.8 °F 29.96 in ENE 2.3 mph 2.3 mph 84% 0.00 in 0.0 W/m2 CLR
01:50 79.1 °F 73.8 °F 29.96 in ENE 2.3 mph 2.3 mph 84% 0.00 in 0.0 W/m2 CLR
01:55 79.0 °F 73.7 °F 29.96 in Calm     84% 0.00 in 0.0 W/m2 CLR
02:00 79.0 °F 74.1 °F 29.96 in ENE 3.5 mph 3.5 mph 85% 0.00 in 0.0 W/m2 CLR
02:05 79.0 °F 73.7 °F 29.96 in ENE 1.2 mph 1.2 mph 84% 0.00 in 0.0 W/m2 CLR
02:10 79.0 °F 73.7 °F 29.95 in Calm     84% 0.00 in 0.0 W/m2 CLR
02:15 78.9 °F 74.0 °F 29.95 in ENE 2.3 mph 2.3 mph 85% 0.00 in 0.0 W/m2 CLR
02:20 78.9 °F 74.0 °F 29.95 in ENE 2.0 mph 2.0 mph 85% 0.00 in 0.0 W/m2 CLR
Lake Mary, FL, USA
Compliments of Weather Underground - 1 mb